sensor_id;sensor_type;location;lat;lon;timestamp;temperature;humidity
16392;DHT22;8305;-33.882;151.134;2023-07-13T00:00:48;12.60;99.90
16392;DHT22;8305;-33.882;151.134;2023-07-13T00:03:21;12.80;99.90
16392;DHT22;8305;-33.882;151.134;2023-07-13T00:05:59;12.80;99.90
16392;DHT22;8305;-33.882;151.134;2023-07-13T00:08:32;12.90;99.90
16392;DHT22;8305;-33.882;151.134;2023-07-13T00:11:03;13.10;99.90
16392;DHT22;8305;-33.882;151.134;2023-07-13T00:13:34;13.20;99.90
16392;DHT22;8305;-33.882;151.134;2023-07-13T00:16:06;13.40;99.90
16392;DHT22;8305;-33.882;151.134;2023-07-13T00:18:39;13.50;99.90
16392;DHT22;8305;-33.882;151.134;2023-07-13T00:21:10;13.60;99.90
16392;DHT22;8305;-33.882;151.134;2023-07-13T00:23:42;13.70;99.90
16392;DHT22;8305;-33.882;151.134;2023-07-13T00:26:13;13.80;99.90
16392;DHT22;8305;-33.882;151.134;2023-07-13T00:28:45;13.90;99.90
16392;DHT22;8305;-33.882;151.134;2023-07-13T00:31:16;14.00;99.90
16392;DHT22;8305;-33.882;151.134;2023-07-13T00:33:48;14.00;99.90
16392;DHT22;8305;-33.882;151.134;2023-07-13T00:36:20;14.10;99.90
16392;DHT22;8305;-33.882;151.134;2023-07-13T00:38:51;14.20;99.90
16392;DHT22;8305;-33.882;151.134;2023-07-13T00:41:22;14.30;99.90
16392;DHT22;8305;-33.882;151.134;2023-07-13T00:43:53;14.30;99.90
16392;DHT22;8305;-33.882;151.134;2023-07-13T00:46:27;14.40;99.90
16392;DHT22;8305;-33.882;151.134;2023-07-13T00:49:02;14.50;99.90
16392;DHT22;8305;-33.882;151.134;2023-07-13T00:51:39;14.70;99.90
16392;DHT22;8305;-33.882;151.134;2023-07-13T00:54:13;14.80;99.90
16392;DHT22;8305;-33.882;151.134;2023-07-13T00:56:47;14.90;99.90
16392;DHT22;8305;-33.882;151.134;2023-07-13T00:59:20;15.00;99.90
16392;DHT22;8305;-33.882;151.134;2023-07-13T01:01:51;15.10;99.90
16392;DHT22;8305;-33.882;151.134;2023-07-13T01:04:25;15.20;99.90
16392;DHT22;8305;-33.882;151.134;2023-07-13T01:06:56;15.20;99.90
16392;DHT22;8305;-33.882;151.134;2023-07-13T01:09:27;15.30;99.90
16392;DHT22;8305;-33.882;151.134;2023-07-13T01:11:58;15.40;99.90
16392;DHT22;8305;-33.882;151.134;2023-07-13T01:14:29;15.50;99.90
16392;DHT22;8305;-33.882;151.134;2023-07-13T01:17:00;15.60;99.90
16392;DHT22;8305;-33.882;151.134;2023-07-13T01:19:37;15.70;99.90
16392;DHT22;8305;-33.882;151.134;2023-07-13T01:22:12;15.80;99.90
16392;DHT22;8305;-33.882;151.134;2023-07-13T01:24:44;15.90;99.90
16392;DHT22;8305;-33.882;151.134;2023-07-13T01:27:17;16.00;99.90
16392;DHT22;8305;-33.882;151.134;2023-07-13T01:29:48;16.10;99.90
16392;DHT22;8305;-33.882;151.134;2023-07-13T01:32:20;16.10;99.90
16392;DHT22;8305;-33.882;151.134;2023-07-13T01:34:52;16.20;99.90
16392;DHT22;8305;-33.882;151.134;2023-07-13T01:37:26;16.40;99.90
16392;DHT22;8305;-33.882;151.134;2023-07-13T01:40:04;16.50;99.90
16392;DHT22;8305;-33.882;151.134;2023-07-13T01:42:36;16.60;99.90
16392;DHT22;8305;-33.882;151.134;2023-07-13T01:45:08;16.60;99.90
16392;DHT22;8305;-33.882;151.134;2023-07-13T01:47:39;16.70;99.90
16392;DHT22;8305;-33.882;151.134;2023-07-13T01:50:11;16.60;99.90
16392;DHT22;8305;-33.882;151.134;2023-07-13T01:52:44;16.70;99.90
16392;DHT22;8305;-33.882;151.134;2023-07-13T01:55:15;16.80;99.90
16392;DHT22;8305;-33.882;151.134;2023-07-13T01:57:46;16.80;99.90
16392;DHT22;8305;-33.882;151.134;2023-07-13T02:00:17;16.80;99.90
16392;DHT22;8305;-33.882;151.134;2023-07-13T02:02:49;16.80;99.90
16392;DHT22;8305;-33.882;151.134;2023-07-13T02:05:20;16.90;99.90
16392;DHT22;8305;-33.882;151.134;2023-07-13T02:07:53;17.00;99.90
16392;DHT22;8305;-33.882;151.134;2023-07-13T02:10:24;17.10;99.90
16392;DHT22;8305;-33.882;151.134;2023-07-13T02:12:56;17.10;99.90
16392;DHT22;8305;-33.882;151.134;2023-07-13T02:15:27;17.10;99.90
16392;DHT22;8305;-33.882;151.134;2023-07-13T02:17:58;17.30;99.90
16392;DHT22;8305;-33.882;151.134;2023-07-13T02:20:30;17.40;99.90
16392;DHT22;8305;-33.882;151.134;2023-07-13T02:23:03;17.70;99.90
16392;DHT22;8305;-33.882;151.134;2023-07-13T02:25:34;17.70;99.90
16392;DHT22;8305;-33.882;151.134;2023-07-13T02:28:05;17.70;99.90
16392;DHT22;8305;-33.882;151.134;2023-07-13T02:30:37;17.70;99.90
16392;DHT22;8305;-33.882;151.134;2023-07-13T02:33:09;17.80;99.90
16392;DHT22;8305;-33.882;151.134;2023-07-13T02:35:40;18.00;99.90
16392;DHT22;8305;-33.882;151.134;2023-07-13T02:38:13;18.10;99.90
16392;DHT22;8305;-33.882;151.134;2023-07-13T02:40:44;18.20;99.90
16392;DHT22;8305;-33.882;151.134;2023-07-13T02:43:16;18.30;99.90
16392;DHT22;8305;-33.882;151.134;2023-07-13T02:45:47;18.40;99.90
16392;DHT22;8305;-33.882;151.134;2023-07-13T02:48:19;18.40;99.90
16392;DHT22;8305;-33.882;151.134;2023-07-13T02:50:50;18.50;99.90
16392;DHT22;8305;-33.882;151.134;2023-07-13T02:53:23;18.50;99.90
16392;DHT22;8305;-33.882;151.134;2023-07-13T02:55:54;18.60;99.90
16392;DHT22;8305;-33.882;151.134;2023-07-13T02:58:26;18.70;99.90
16392;DHT22;8305;-33.882;151.134;2023-07-13T03:00:57;18.70;99.90
16392;DHT22;8305;-33.882;151.134;2023-07-13T03:03:28;18.70;99.90
16392;DHT22;8305;-33.882;151.134;2023-07-13T03:06:03;18.70;99.90
16392;DHT22;8305;-33.882;151.134;2023-07-13T03:08:38;18.70;99.90
16392;DHT22;8305;-33.882;151.134;2023-07-13T03:11:14;18.70;99.90
16392;DHT22;8305;-33.882;151.134;2023-07-13T03:13:45;18.80;99.90
16392;DHT22;8305;-33.882;151.134;2023-07-13T03:16:17;18.90;99.90
16392;DHT22;8305;-33.882;151.134;2023-07-13T03:18:48;18.90;99.90
16392;DHT22;8305;-33.882;151.134;2023-07-13T03:21:20;19.00;99.90
16392;DHT22;8305;-33.882;151.134;2023-07-13T03:23:53;19.00;99.90
16392;DHT22;8305;-33.882;151.134;2023-07-13T03:26:24;19.00;99.90
16392;DHT22;8305;-33.882;151.134;2023-07-13T03:28:56;19.20;99.90
16392;DHT22;8305;-33.882;151.134;2023-07-13T03:31:28;19.20;99.90
16392;DHT22;8305;-33.882;151.134;2023-07-13T03:33:59;19.30;99.90
16392;DHT22;8305;-33.882;151.134;2023-07-13T03:36:31;19.30;99.90
16392;DHT22;8305;-33.882;151.134;2023-07-13T03:39:05;19.40;99.90
16392;DHT22;8305;-33.882;151.134;2023-07-13T03:41:36;19.40;99.90
16392;DHT22;8305;-33.882;151.134;2023-07-13T03:44:07;19.40;99.90
16392;DHT22;8305;-33.882;151.134;2023-07-13T03:46:38;19.40;99.90
16392;DHT22;8305;-33.882;151.134;2023-07-13T03:49:09;19.50;99.90
16392;DHT22;8305;-33.882;151.134;2023-07-13T03:51:41;19.40;99.90
16392;DHT22;8305;-33.882;151.134;2023-07-13T03:54:14;19.30;99.90
16392;DHT22;8305;-33.882;151.134;2023-07-13T03:56:45;19.30;99.90
16392;DHT22;8305;-33.882;151.134;2023-07-13T03:59:16;19.40;99.90
16392;DHT22;8305;-33.882;151.134;2023-07-13T04:01:47;19.40;99.90
16392;DHT22;8305;-33.882;151.134;2023-07-13T04:04:18;19.40;99.90
16392;DHT22;8305;-33.882;151.134;2023-07-13T04:06:49;19.40;99.90
16392;DHT22;8305;-33.882;151.134;2023-07-13T04:09:23;19.50;99.90
16392;DHT22;8305;-33.882;151.134;2023-07-13T04:11:55;19.50;99.90
16392;DHT22;8305;-33.882;151.134;2023-07-13T04:14:26;19.60;99.90
16392;DHT22;8305;-33.882;151.134;2023-07-13T04:16:57;19.60;99.90
16392;DHT22;8305;-33.882;151.134;2023-07-13T04:19:28;19.60;99.90
16392;DHT22;8305;-33.882;151.134;2023-07-13T04:21:59;19.60;99.90
16392;DHT22;8305;-33.882;151.134;2023-07-13T04:24:32;19.60;99.90
16392;DHT22;8305;-33.882;151.134;2023-07-13T04:27:04;19.70;99.90
16392;DHT22;8305;-33.882;151.134;2023-07-13T04:29:35;19.70;99.90
16392;DHT22;8305;-33.882;151.134;2023-07-13T04:32:06;19.70;99.90
16392;DHT22;8305;-33.882;151.134;2023-07-13T04:34:38;19.80;99.90
16392;DHT22;8305;-33.882;151.134;2023-07-13T04:37:09;19.90;99.90
16392;DHT22;8305;-33.882;151.134;2023-07-13T04:39:42;19.90;99.90
16392;DHT22;8305;-33.882;151.134;2023-07-13T04:42:13;19.90;99.90
16392;DHT22;8305;-33.882;151.134;2023-07-13T04:44:48;19.80;99.90
16392;DHT22;8305;-33.882;151.134;2023-07-13T04:47:19;19.80;99.90
16392;DHT22;8305;-33.882;151.134;2023-07-13T04:49:50;19.80;99.90
16392;DHT22;8305;-33.882;151.134;2023-07-13T04:52:22;19.80;99.90
16392;DHT22;8305;-33.882;151.134;2023-07-13T04:54:55;19.80;99.90
16392;DHT22;8305;-33.882;151.134;2023-07-13T04:57:26;19.80;99.90
16392;DHT22;8305;-33.882;151.134;2023-07-13T04:59:57;19.80;99.90
16392;DHT22;8305;-33.882;151.134;2023-07-13T05:02:28;19.80;99.90
16392;DHT22;8305;-33.882;151.134;2023-07-13T05:05:00;19.90;99.90
16392;DHT22;8305;-33.882;151.134;2023-07-13T05:07:32;19.90;99.90
16392;DHT22;8305;-33.882;151.134;2023-07-13T05:10:05;19.90;99.90
16392;DHT22;8305;-33.882;151.134;2023-07-13T05:12:37;19.90;99.90
16392;DHT22;8305;-33.882;151.134;2023-07-13T05:15:08;19.90;99.90
16392;DHT22;8305;-33.882;151.134;2023-07-13T05:17:39;20.00;99.90
16392;DHT22;8305;-33.882;151.134;2023-07-13T05:20:11;20.00;99.90
16392;DHT22;8305;-33.882;151.134;2023-07-13T05:22:42;20.00;99.90
16392;DHT22;8305;-33.882;151.134;2023-07-13T05:25:16;19.90;99.90
16392;DHT22;8305;-33.882;151.134;2023-07-13T05:27:47;19.90;99.90
16392;DHT22;8305;-33.882;151.134;2023-07-13T05:30:19;19.90;99.90
16392;DHT22;8305;-33.882;151.134;2023-07-13T05:32:50;19.90;99.90
16392;DHT22;8305;-33.882;151.134;2023-07-13T05:35:21;19.90;99.90
16392;DHT22;8305;-33.882;151.134;2023-07-13T05:37:52;19.90;99.90
16392;DHT22;8305;-33.882;151.134;2023-07-13T05:40:25;19.80;99.90
16392;DHT22;8305;-33.882;151.134;2023-07-13T05:42:56;19.80;99.90
16392;DHT22;8305;-33.882;151.134;2023-07-13T05:45:28;19.80;99.90
16392;DHT22;8305;-33.882;151.134;2023-07-13T05:47:59;19.70;99.90
16392;DHT22;8305;-33.882;151.134;2023-07-13T05:50:30;19.80;99.90
16392;DHT22;8305;-33.882;151.134;2023-07-13T05:53:01;19.70;99.90
16392;DHT22;8305;-33.882;151.134;2023-07-13T05:55:35;19.70;99.90
16392;DHT22;8305;-33.882;151.134;2023-07-13T05:58:06;19.60;99.90
16392;DHT22;8305;-33.882;151.134;2023-07-13T06:00:37;19.70;99.90
16392;DHT22;8305;-33.882;151.134;2023-07-13T06:03:08;19.60;99.90
16392;DHT22;8305;-33.882;151.134;2023-07-13T06:05:39;19.50;99.90
16392;DHT22;8305;-33.882;151.134;2023-07-13T06:08:11;19.50;99.90
16392;DHT22;8305;-33.882;151.134;2023-07-13T06:10:44;19.40;99.90
16392;DHT22;8305;-33.882;151.134;2023-07-13T06:13:15;19.30;99.90
16392;DHT22;8305;-33.882;151.134;2023-07-13T06:15:49;19.20;99.90
16392;DHT22;8305;-33.882;151.134;2023-07-13T06:18:20;19.20;99.90
16392;DHT22;8305;-33.882;151.134;2023-07-13T06:20:51;19.10;99.90
16392;DHT22;8305;-33.882;151.134;2023-07-13T06:23:22;19.00;99.90
16392;DHT22;8305;-33.882;151.134;2023-07-13T06:25:55;19.00;99.90
16392;DHT22;8305;-33.882;151.134;2023-07-13T06:28:27;18.90;99.90
16392;DHT22;8305;-33.882;151.134;2023-07-13T06:30:58;18.80;99.90
16392;DHT22;8305;-33.882;151.134;2023-07-13T06:33:29;18.70;99.90
16392;DHT22;8305;-33.882;151.134;2023-07-13T06:36:00;18.60;99.90
16392;DHT22;8305;-33.882;151.134;2023-07-13T06:38:31;18.50;99.90
16392;DHT22;8305;-33.882;151.134;2023-07-13T06:41:05;18.40;99.90
16392;DHT22;8305;-33.882;151.134;2023-07-13T06:43:36;18.30;99.90
16392;DHT22;8305;-33.882;151.134;2023-07-13T06:46:07;18.20;99.90
16392;DHT22;8305;-33.882;151.134;2023-07-13T06:48:38;18.00;99.90
16392;DHT22;8305;-33.882;151.134;2023-07-13T06:51:10;17.90;99.90
16392;DHT22;8305;-33.882;151.134;2023-07-13T06:53:41;17.80;99.90
16392;DHT22;8305;-33.882;151.134;2023-07-13T06:56:14;17.60;99.90
16392;DHT22;8305;-33.882;151.134;2023-07-13T06:58:45;17.40;99.90
16392;DHT22;8305;-33.882;151.134;2023-07-13T07:01:16;17.30;99.90
16392;DHT22;8305;-33.882;151.134;2023-07-13T07:03:47;17.10;99.90
16392;DHT22;8305;-33.882;151.134;2023-07-13T07:06:20;17.00;99.90
16392;DHT22;8305;-33.882;151.134;2023-07-13T07:08:52;16.80;99.90
16392;DHT22;8305;-33.882;151.134;2023-07-13T07:11:26;16.70;99.90
16392;DHT22;8305;-33.882;151.134;2023-07-13T07:13:57;16.50;99.90
16392;DHT22;8305;-33.882;151.134;2023-07-13T07:16:28;16.40;99.90
16392;DHT22;8305;-33.882;151.134;2023-07-13T07:18:59;16.30;99.90
16392;DHT22;8305;-33.882;151.134;2023-07-13T07:21:30;16.30;99.90
16392;DHT22;8305;-33.882;151.134;2023-07-13T07:24:01;16.20;99.90
16392;DHT22;8305;-33.882;151.134;2023-07-13T07:26:34;16.10;99.90
16392;DHT22;8305;-33.882;151.134;2023-07-13T07:29:05;16.00;99.90
16392;DHT22;8305;-33.882;151.134;2023-07-13T07:31:36;15.90;99.90
16392;DHT22;8305;-33.882;151.134;2023-07-13T07:34:08;15.80;99.90
16392;DHT22;8305;-33.882;151.134;2023-07-13T07:36:39;15.70;99.90
16392;DHT22;8305;-33.882;151.134;2023-07-13T07:39:10;15.60;99.90
16392;DHT22;8305;-33.882;151.134;2023-07-13T07:41:43;15.60;99.90
16392;DHT22;8305;-33.882;151.134;2023-07-13T07:44:15;15.50;99.90
16392;DHT22;8305;-33.882;151.134;2023-07-13T07:46:46;15.40;99.90
16392;DHT22;8305;-33.882;151.134;2023-07-13T07:49:17;15.40;99.90
16392;DHT22;8305;-33.882;151.134;2023-07-13T07:51:48;15.30;99.90
16392;DHT22;8305;-33.882;151.134;2023-07-13T07:54:19;15.20;99.90
16392;DHT22;8305;-33.882;151.134;2023-07-13T07:56:52;15.20;99.90
16392;DHT22;8305;-33.882;151.134;2023-07-13T07:59:23;15.10;99.90
16392;DHT22;8305;-33.882;151.134;2023-07-13T08:01:54;15.10;99.90
16392;DHT22;8305;-33.882;151.134;2023-07-13T08:04:25;15.10;99.90
16392;DHT22;8305;-33.882;151.134;2023-07-13T08:06:56;15.00;99.90
16392;DHT22;8305;-33.882;151.134;2023-07-13T08:09:30;14.90;99.90
16392;DHT22;8305;-33.882;151.134;2023-07-13T08:12:04;14.90;99.90
16392;DHT22;8305;-33.882;151.134;2023-07-13T08:14:35;14.80;99.90
16392;DHT22;8305;-33.882;151.134;2023-07-13T08:17:06;14.70;99.90
16392;DHT22;8305;-33.882;151.134;2023-07-13T08:19:37;14.70;99.90
16392;DHT22;8305;-33.882;151.134;2023-07-13T08:22:08;14.60;99.90
16392;DHT22;8305;-33.882;151.134;2023-07-13T08:24:40;14.60;99.90
16392;DHT22;8305;-33.882;151.134;2023-07-13T08:27:14;14.60;99.90
16392;DHT22;8305;-33.882;151.134;2023-07-13T08:29:45;14.60;99.90
16392;DHT22;8305;-33.882;151.134;2023-07-13T08:32:18;14.60;99.90
16392;DHT22;8305;-33.882;151.134;2023-07-13T08:34:50;14.50;99.90
16392;DHT22;8305;-33.882;151.134;2023-07-13T08:37:21;14.50;99.90
16392;DHT22;8305;-33.882;151.134;2023-07-13T08:39:53;14.50;99.90
16392;DHT22;8305;-33.882;151.134;2023-07-13T08:42:32;14.40;99.90
16392;DHT22;8305;-33.882;151.134;2023-07-13T08:45:12;14.40;99.90
16392;DHT22;8305;-33.882;151.134;2023-07-13T08:47:57;14.40;99.90
16392;DHT22;8305;-33.882;151.134;2023-07-13T08:50:35;14.40;99.90
16392;DHT22;8305;-33.882;151.134;2023-07-13T08:53:13;14.40;99.90
16392;DHT22;8305;-33.882;151.134;2023-07-13T08:55:46;14.30;99.90
16392;DHT22;8305;-33.882;151.134;2023-07-13T08:58:19;14.30;99.90
16392;DHT22;8305;-33.882;151.134;2023-07-13T09:00:55;14.20;99.90
16392;DHT22;8305;-33.882;151.134;2023-07-13T09:03:42;14.20;99.90
16392;DHT22;8305;-33.882;151.134;2023-07-13T09:06:18;14.10;99.90
16392;DHT22;8305;-33.882;151.134;2023-07-13T09:08:58;14.10;99.90
16392;DHT22;8305;-33.882;151.134;2023-07-13T09:11:46;14.10;99.90
16392;DHT22;8305;-33.882;151.134;2023-07-13T09:14:37;14.00;99.90
16392;DHT22;8305;-33.882;151.134;2023-07-13T09:17:15;14.00;99.90
16392;DHT22;8305;-33.882;151.134;2023-07-13T09:19:52;13.90;99.90
16392;DHT22;8305;-33.882;151.134;2023-07-13T09:22:26;13.90;99.90
16392;DHT22;8305;-33.882;151.134;2023-07-13T09:25:04;13.90;99.90
16392;DHT22;8305;-33.882;151.134;2023-07-13T09:27:38;13.80;99.90
16392;DHT22;8305;-33.882;151.134;2023-07-13T09:30:24;13.80;99.90
16392;DHT22;8305;-33.882;151.134;2023-07-13T09:32:58;13.70;99.90
16392;DHT22;8305;-33.882;151.134;2023-07-13T09:35:30;13.60;99.90
16392;DHT22;8305;-33.882;151.134;2023-07-13T09:38:11;13.60;99.90
16392;DHT22;8305;-33.882;151.134;2023-07-13T09:40:59;13.50;99.90
16392;DHT22;8305;-33.882;151.134;2023-07-13T09:43:36;13.40;99.90
16392;DHT22;8305;-33.882;151.134;2023-07-13T09:46:21;13.40;99.90
16392;DHT22;8305;-33.882;151.134;2023-07-13T09:48:52;13.40;99.90
16392;DHT22;8305;-33.882;151.134;2023-07-13T09:51:23;13.40;99.90
16392;DHT22;8305;-33.882;151.134;2023-07-13T09:53:55;13.40;99.90
16392;DHT22;8305;-33.882;151.134;2023-07-13T09:56:28;13.40;99.90
16392;DHT22;8305;-33.882;151.134;2023-07-13T09:59:00;13.40;99.90
16392;DHT22;8305;-33.882;151.134;2023-07-13T10:01:38;13.40;99.90
16392;DHT22;8305;-33.882;151.134;2023-07-13T10:04:12;13.40;99.90
16392;DHT22;8305;-33.882;151.134;2023-07-13T10:06:44;13.40;99.90
16392;DHT22;8305;-33.882;151.134;2023-07-13T10:09:17;13.30;99.90
16392;DHT22;8305;-33.882;151.134;2023-07-13T10:11:51;13.30;99.90
16392;DHT22;8305;-33.882;151.134;2023-07-13T10:14:22;13.30;99.90
16392;DHT22;8305;-33.882;151.134;2023-07-13T10:16:59;13.20;99.90
16392;DHT22;8305;-33.882;151.134;2023-07-13T10:19:32;13.20;99.90
16392;DHT22;8305;-33.882;151.134;2023-07-13T10:22:19;13.20;99.90
16392;DHT22;8305;-33.882;151.134;2023-07-13T10:24:53;13.10;99.90
16392;DHT22;8305;-33.882;151.134;2023-07-13T10:27:31;13.10;99.90
16392;DHT22;8305;-33.882;151.134;2023-07-13T10:30:11;13.00;99.90
16392;DHT22;8305;-33.882;151.134;2023-07-13T10:32:45;12.90;99.90
16392;DHT22;8305;-33.882;151.134;2023-07-13T10:35:18;12.90;99.90
16392;DHT22;8305;-33.882;151.134;2023-07-13T10:37:52;12.80;99.90
16392;DHT22;8305;-33.882;151.134;2023-07-13T10:40:28;12.70;99.90
16392;DHT22;8305;-33.882;151.134;2023-07-13T10:43:02;12.70;99.90
16392;DHT22;8305;-33.882;151.134;2023-07-13T10:45:36;12.70;99.90
16392;DHT22;8305;-33.882;151.134;2023-07-13T10:48:12;12.70;99.90
16392;DHT22;8305;-33.882;151.134;2023-07-13T10:50:50;12.70;99.90
16392;DHT22;8305;-33.882;151.134;2023-07-13T10:53:27;12.60;99.90
16392;DHT22;8305;-33.882;151.134;2023-07-13T10:56:03;12.60;99.90
16392;DHT22;8305;-33.882;151.134;2023-07-13T10:58:37;12.60;99.90
16392;DHT22;8305;-33.882;151.134;2023-07-13T11:01:10;12.50;99.90
16392;DHT22;8305;-33.882;151.134;2023-07-13T11:03:54;12.50;99.90
16392;DHT22;8305;-33.882;151.134;2023-07-13T11:06:36;12.50;99.90
16392;DHT22;8305;-33.882;151.134;2023-07-13T11:09:30;12.50;99.90
16392;DHT22;8305;-33.882;151.134;2023-07-13T11:12:03;12.40;99.90
16392;DHT22;8305;-33.882;151.134;2023-07-13T11:14:41;12.40;99.90
16392;DHT22;8305;-33.882;151.134;2023-07-13T11:17:35;12.30;99.90
16392;DHT22;8305;-33.882;151.134;2023-07-13T11:20:30;12.30;99.90
16392;DHT22;8305;-33.882;151.134;2023-07-13T11:23:21;12.20;99.90
16392;DHT22;8305;-33.882;151.134;2023-07-13T11:25:58;12.10;99.90
16392;DHT22;8305;-33.882;151.134;2023-07-13T11:28:32;12.10;99.90
16392;DHT22;8305;-33.882;151.134;2023-07-13T11:31:13;12.10;99.90
16392;DHT22;8305;-33.882;151.134;2023-07-13T11:33:57;12.10;99.90
16392;DHT22;8305;-33.882;151.134;2023-07-13T11:36:39;12.10;99.90
16392;DHT22;8305;-33.882;151.134;2023-07-13T11:39:20;12.10;99.90
16392;DHT22;8305;-33.882;151.134;2023-07-13T11:41:53;12.10;99.90
16392;DHT22;8305;-33.882;151.134;2023-07-13T11:44:27;12.00;99.90
16392;DHT22;8305;-33.882;151.134;2023-07-13T11:47:00;12.00;99.90
16392;DHT22;8305;-33.882;151.134;2023-07-13T11:49:36;11.90;99.90
16392;DHT22;8305;-33.882;151.134;2023-07-13T11:52:16;11.90;99.90
16392;DHT22;8305;-33.882;151.134;2023-07-13T11:54:50;11.90;99.90
16392;DHT22;8305;-33.882;151.134;2023-07-13T11:57:26;11.80;99.90
16392;DHT22;8305;-33.882;151.134;2023-07-13T12:00:00;11.80;99.90
16392;DHT22;8305;-33.882;151.134;2023-07-13T12:02:36;11.80;99.90
16392;DHT22;8305;-33.882;151.134;2023-07-13T12:05:11;11.80;99.90
16392;DHT22;8305;-33.882;151.134;2023-07-13T12:07:46;11.80;99.90
16392;DHT22;8305;-33.882;151.134;2023-07-13T12:10:22;11.70;99.90
16392;DHT22;8305;-33.882;151.134;2023-07-13T12:12:55;11.70;99.90
16392;DHT22;8305;-33.882;151.134;2023-07-13T12:15:35;11.70;99.90
16392;DHT22;8305;-33.882;151.134;2023-07-13T12:18:13;11.70;99.90
16392;DHT22;8305;-33.882;151.134;2023-07-13T12:20:46;11.60;99.90
16392;DHT22;8305;-33.882;151.134;2023-07-13T12:23:23;11.60;99.90
16392;DHT22;8305;-33.882;151.134;2023-07-13T12:25:55;11.50;99.90
16392;DHT22;8305;-33.882;151.134;2023-07-13T12:28:33;11.50;99.90
16392;DHT22;8305;-33.882;151.134;2023-07-13T12:31:05;11.50;99.90
16392;DHT22;8305;-33.882;151.134;2023-07-13T12:33:40;11.50;99.90
16392;DHT22;8305;-33.882;151.134;2023-07-13T12:36:13;11.40;99.90
16392;DHT22;8305;-33.882;151.134;2023-07-13T12:38:46;11.40;99.90
16392;DHT22;8305;-33.882;151.134;2023-07-13T12:41:19;11.40;99.90
16392;DHT22;8305;-33.882;151.134;2023-07-13T12:43:51;11.40;99.90
16392;DHT22;8305;-33.882;151.134;2023-07-13T12:46:25;11.40;99.90
16392;DHT22;8305;-33.882;151.134;2023-07-13T12:48:58;11.30;99.90
16392;DHT22;8305;-33.882;151.134;2023-07-13T12:51:29;11.30;99.90
16392;DHT22;8305;-33.882;151.134;2023-07-13T12:54:14;11.30;99.90
16392;DHT22;8305;-33.882;151.134;2023-07-13T12:56:51;11.20;99.90
16392;DHT22;8305;-33.882;151.134;2023-07-13T12:59:31;11.20;99.90
16392;DHT22;8305;-33.882;151.134;2023-07-13T13:02:26;11.20;99.90
16392;DHT22;8305;-33.882;151.134;2023-07-13T13:04:58;11.10;99.90
16392;DHT22;8305;-33.882;151.134;2023-07-13T13:07:29;11.10;99.90
16392;DHT22;8305;-33.882;151.134;2023-07-13T13:10:07;11.10;99.90
16392;DHT22;8305;-33.882;151.134;2023-07-13T13:12:41;11.00;99.90
16392;DHT22;8305;-33.882;151.134;2023-07-13T13:15:13;11.00;99.90
16392;DHT22;8305;-33.882;151.134;2023-07-13T13:17:44;11.00;99.90
16392;DHT22;8305;-33.882;151.134;2023-07-13T13:20:17;10.90;99.90
16392;DHT22;8305;-33.882;151.134;2023-07-13T13:22:49;10.90;99.90
16392;DHT22;8305;-33.882;151.134;2023-07-13T13:25:22;10.90;99.90
16392;DHT22;8305;-33.882;151.134;2023-07-13T13:27:53;10.90;99.90
16392;DHT22;8305;-33.882;151.134;2023-07-13T13:30:24;10.90;99.90
16392;DHT22;8305;-33.882;151.134;2023-07-13T13:32:55;10.90;99.90
16392;DHT22;8305;-33.882;151.134;2023-07-13T13:35:26;10.90;99.90
16392;DHT22;8305;-33.882;151.134;2023-07-13T13:37:57;10.90;99.90
16392;DHT22;8305;-33.882;151.134;2023-07-13T13:40:30;10.90;99.90
16392;DHT22;8305;-33.882;151.134;2023-07-13T13:43:01;10.90;99.90
16392;DHT22;8305;-33.882;151.134;2023-07-13T13:45:33;10.90;99.90
16392;DHT22;8305;-33.882;151.134;2023-07-13T13:48:04;10.90;99.90
16392;DHT22;8305;-33.882;151.134;2023-07-13T13:50:35;10.80;99.90
16392;DHT22;8305;-33.882;151.134;2023-07-13T13:53:07;10.80;99.90
16392;DHT22;8305;-33.882;151.134;2023-07-13T13:55:41;10.80;99.90
16392;DHT22;8305;-33.882;151.134;2023-07-13T13:58:12;10.80;99.90
16392;DHT22;8305;-33.882;151.134;2023-07-13T14:00:43;10.80;99.90
16392;DHT22;8305;-33.882;151.134;2023-07-13T14:03:17;10.80;99.90
16392;DHT22;8305;-33.882;151.134;2023-07-13T14:05:49;10.80;99.90
16392;DHT22;8305;-33.882;151.134;2023-07-13T14:08:21;10.80;99.90
16392;DHT22;8305;-33.882;151.134;2023-07-13T14:10:55;10.70;99.90
16392;DHT22;8305;-33.882;151.134;2023-07-13T14:13:36;10.60;99.90
16392;DHT22;8305;-33.882;151.134;2023-07-13T14:16:12;10.50;99.90
16392;DHT22;8305;-33.882;151.134;2023-07-13T14:18:45;10.30;99.90
16392;DHT22;8305;-33.882;151.134;2023-07-13T14:21:17;10.20;99.90
16392;DHT22;8305;-33.882;151.134;2023-07-13T14:23:50;10.20;99.90
16392;DHT22;8305;-33.882;151.134;2023-07-13T14:26:25;10.20;99.90
16392;DHT22;8305;-33.882;151.134;2023-07-13T14:28:58;10.20;99.90
16392;DHT22;8305;-33.882;151.134;2023-07-13T14:31:29;10.20;99.90
16392;DHT22;8305;-33.882;151.134;2023-07-13T14:34:00;10.20;99.90
16392;DHT22;8305;-33.882;151.134;2023-07-13T14:36:33;10.30;99.90
16392;DHT22;8305;-33.882;151.134;2023-07-13T14:39:12;10.20;99.90
16392;DHT22;8305;-33.882;151.134;2023-07-13T14:41:49;10.20;99.90
16392;DHT22;8305;-33.882;151.134;2023-07-13T14:44:25;10.20;99.90
16392;DHT22;8305;-33.882;151.134;2023-07-13T14:46:58;10.20;99.90
16392;DHT22;8305;-33.882;151.134;2023-07-13T14:49:33;10.20;99.90
16392;DHT22;8305;-33.882;151.134;2023-07-13T14:52:11;10.20;99.90
16392;DHT22;8305;-33.882;151.134;2023-07-13T14:54:42;10.20;99.90
16392;DHT22;8305;-33.882;151.134;2023-07-13T14:57:17;10.20;99.90
16392;DHT22;8305;-33.882;151.134;2023-07-13T14:59:48;10.20;99.90
16392;DHT22;8305;-33.882;151.134;2023-07-13T15:02:28;10.20;99.90
16392;DHT22;8305;-33.882;151.134;2023-07-13T15:05:00;10.20;99.90
16392;DHT22;8305;-33.882;151.134;2023-07-13T15:07:31;10.20;99.90
16392;DHT22;8305;-33.882;151.134;2023-07-13T15:12:45;10.20;99.90
16392;DHT22;8305;-33.882;151.134;2023-07-13T15:15:16;10.10;99.90
16392;DHT22;8305;-33.882;151.134;2023-07-13T15:17:48;10.10;99.90
16392;DHT22;8305;-33.882;151.134;2023-07-13T15:20:25;10.10;99.90
16392;DHT22;8305;-33.882;151.134;2023-07-13T15:22:56;10.10;99.90
16392;DHT22;8305;-33.882;151.134;2023-07-13T15:25:31;10.10;99.90
16392;DHT22;8305;-33.882;151.134;2023-07-13T15:28:04;10.10;99.90
16392;DHT22;8305;-33.882;151.134;2023-07-13T15:30:39;10.10;99.90
16392;DHT22;8305;-33.882;151.134;2023-07-13T15:33:14;10.10;99.90
16392;DHT22;8305;-33.882;151.134;2023-07-13T15:35:46;10.10;99.90
16392;DHT22;8305;-33.882;151.134;2023-07-13T15:38:20;10.00;99.90
16392;DHT22;8305;-33.882;151.134;2023-07-13T15:40:51;10.00;99.90
16392;DHT22;8305;-33.882;151.134;2023-07-13T15:43:25;10.00;99.90